KVTN/VTN METAR and TAF weather

Enter ICAO airport designator
Station Type Date Time Source
KVTN METAR 2019/02/17 15:32 UTC NOAA

KVTN 171532Z AUTO 32014G24KT 2SM -SN BKN043 OVC049 M12/M16 A2996 RMK AO2 PK WND 31026/1513 P0000 T11171156


Station Type Date Time Source
KVTN Decoded METAR 2019/02/17 15:32 UTC NOAA

MILLER FIELD - VALENTINE, NE, NE, United States (KVTN) 42-52N 100-33W 788M
Feb 17, 2019 - 10:32 AM EST / 2019.02.17 1532 UTC
Wind: from the NW (320 degrees) at 16 MPH (14 KT) gusting to 28 MPH (24 KT):0
Visibility: 2 mile(s):0
Sky conditions: overcast
Weather: light snow
Precipitation last hour: A trace
Temperature: 10.9 F (-11.7 C)
Windchill: -5 F (-21 C):2
Dew Point: 3.9 F (-15.6 C)
Relative Humidity: 72%
Pressure (altimeter): 29.96 in. Hg (1014 hPa)
ob: KVTN 171532Z AUTO 32014G24KT 2SM -SN BKN043 OVC049 M12/M16 A2996 RMK AO2 PK WND 31026/1513 P0000 T11171156
cycle: 15

Station Type Date Time Source
KVTN TAF 2019/02/17 15:21 UTC NOAA

TAF
AMD KVTN 171517Z 1715/1812 32015G22KT 1SM -SN BKN030 OVC040
FM172000 33014G20KT 4SM -SN OVC040
FM180100 33008KT P6SM OVC025
FM181000 32006KT P6SM OVC017


Example: see airport list